createdAt,value
2019-05-06T00:00:15.481Z,64.05
2019-05-06T00:02:44.346Z,63.67
2019-05-06T00:05:14.415Z,63.37
2019-05-06T00:07:46.542Z,63.69
2019-05-06T00:10:26.661Z,64.10
2019-05-06T00:12:56.320Z,63.64
2019-05-06T00:15:25.492Z,64.20
2019-05-06T00:17:54.559Z,63.99
2019-05-06T00:20:24.404Z,63.52
2019-05-06T00:22:56.745Z,63.32
2019-05-06T00:25:34.881Z,63.83
2019-05-06T00:28:35.215Z,63.83
2019-05-06T00:31:12.675Z,64.36
2019-05-06T00:33:37.134Z,64.10
2019-05-06T00:36:06.105Z,64.46
2019-05-06T00:38:35.801Z,65.20
2019-05-06T00:41:06.826Z,65.22
2019-05-06T00:43:35.745Z,65.68
2019-05-06T00:46:05.087Z,65.48
2019-05-06T00:48:34.269Z,65.70
2019-05-06T00:51:04.495Z,65.57
2019-05-06T00:53:35.524Z,65.56
2019-05-06T00:56:04.676Z,66.26
2019-05-06T00:58:34.803Z,66.29
2019-05-06T01:01:04.777Z,66.49
2019-05-06T01:03:34.706Z,66.97
2019-05-06T01:06:04.077Z,66.75
2019-05-06T01:08:34.908Z,66.91
2019-05-06T01:11:06.188Z,67.21
2019-05-06T01:13:40.786Z,67.32
2019-05-06T01:16:11.297Z,67.32
2019-05-06T01:18:40.187Z,67.94
2019-05-06T01:21:14.324Z,68.48
2019-05-06T01:23:44.172Z,69.06
2019-05-06T01:26:16.117Z,68.46
2019-05-06T01:28:49.089Z,68.38
2019-05-06T01:31:20.805Z,66.53
2019-05-06T01:33:53.524Z,67.01
2019-05-06T01:36:24.693Z,66.51
2019-05-06T01:39:07.062Z,65.89
2019-05-06T01:41:57.196Z,66.23
2019-05-06T01:44:26.196Z,66.22
2019-05-06T01:46:55.078Z,66.86
2019-05-06T01:49:24.520Z,67.10
2019-05-06T01:51:54.591Z,67.64
2019-05-06T01:54:26.417Z,67.59
2019-05-06T01:56:58.652Z,67.69
2019-05-06T01:59:31.187Z,67.63
2019-05-06T02:02:04.338Z,67.51
2019-05-06T02:04:36.104Z,67.75
2019-05-06T02:07:05.059Z,68.03
2019-05-06T02:09:34.438Z,67.75
2019-05-06T02:12:04.701Z,68.20
2019-05-06T02:14:34.273Z,68.38
2019-05-06T02:17:03.760Z,68.33
2019-05-06T02:19:34.757Z,68.19
2019-05-06T02:22:13.627Z,68.26
2019-05-06T02:24:49.470Z,68.54
2019-05-06T02:27:18.690Z,68.51
2019-05-06T02:29:54.329Z,68.96
2019-05-06T02:32:45.246Z,69.77
2019-05-06T02:35:19.222Z,70.37
2019-05-06T02:37:48.204Z,70.62
2019-05-06T02:40:24.627Z,70.73
2019-05-06T02:42:54.808Z,70.70
2019-05-06T02:45:24.446Z,70.86
2019-05-06T02:48:17.787Z,71.05
2019-05-06T02:51:05.534Z,71.22
2019-05-06T02:53:34.371Z,71.00
2019-05-06T02:56:04.379Z,70.79
2019-05-06T02:58:33.650Z,70.80
2019-05-06T03:01:03.693Z,70.92
2019-05-06T03:03:34.233Z,70.91
2019-05-06T03:06:03.955Z,71.16
2019-05-06T03:08:33.536Z,70.27
2019-05-06T03:11:04.033Z,70.07
2019-05-06T03:13:34.393Z,69.93
2019-05-06T03:16:05.928Z,70.04
2019-05-06T03:18:34.080Z,70.33
2019-05-06T03:21:28.263Z,69.69
2019-05-06T03:24:03.954Z,69.74
2019-05-06T03:26:33.782Z,70.22
2019-05-06T03:29:03.087Z,70.16
2019-05-06T03:31:36.375Z,70.06
2019-05-06T03:34:28.378Z,70.27
2019-05-06T03:36:40.355Z,70.36
2019-05-06T03:39:05.896Z,70.75
2019-05-06T03:41:34.999Z,70.88
2019-05-06T03:44:04.161Z,70.45
2019-05-06T03:46:53.934Z,70.62
2019-05-06T03:49:23.793Z,70.38
2019-05-06T03:51:55.941Z,70.99
2019-05-06T03:54:24.855Z,71.43
2019-05-06T03:56:54.848Z,71.24
2019-05-06T03:59:25.581Z,70.80
2019-05-06T04:01:54.349Z,70.54
2019-05-06T04:04:23.456Z,70.66
2019-05-06T04:06:53.737Z,71.05
2019-05-06T04:09:24.060Z,71.08
2019-05-06T04:11:54.252Z,71.35
2019-05-06T04:14:23.974Z,71.04
2019-05-06T04:16:58.704Z,70.81
2019-05-06T04:19:33.313Z,71.19
2019-05-06T04:22:13.665Z,70.13
2019-05-06T04:24:55.874Z,70.19
2019-05-06T04:27:38.983Z,70.12
2019-05-06T04:30:08.073Z,70.21
2019-05-06T04:32:37.053Z,70.55
2019-05-06T04:35:06.417Z,71.29
2019-05-06T04:37:35.504Z,72.01
2019-05-06T04:40:04.798Z,72.02
2019-05-06T04:42:34.613Z,72.07
2019-05-06T04:45:04.993Z,72.29
2019-05-06T04:47:34.045Z,72.24
2019-05-06T04:50:05.004Z,71.90
2019-05-06T04:52:34.436Z,72.04
2019-05-06T04:55:04.058Z,71.81
2019-05-06T04:57:33.703Z,71.04
2019-05-06T05:00:04.328Z,70.84
2019-05-06T05:02:33.944Z,70.87
2019-05-06T05:05:04.402Z,71.51
2019-05-06T05:07:33.694Z,71.82
2019-05-06T05:10:12.631Z,71.09
2019-05-06T05:12:52.565Z,71.87
2019-05-06T05:15:49.655Z,71.97
2019-05-06T05:18:23.112Z,72.59
2019-05-06T05:20:52.875Z,73.31
2019-05-06T05:23:22.887Z,73.31
2019-05-06T05:25:52.223Z,72.86
2019-05-06T05:28:22.306Z,72.58
2019-05-06T05:30:52.183Z,72.34
2019-05-06T05:33:22.492Z,71.77
2019-05-06T05:35:52.565Z,71.46
2019-05-06T05:38:22.719Z,70.96
2019-05-06T05:40:52.794Z,70.16
2019-05-06T05:43:32.525Z,70.17
2019-05-06T05:46:02.926Z,69.45
2019-05-06T05:48:59.450Z,69.10
2019-05-06T05:51:28.611Z,68.91
2019-05-06T05:53:57.610Z,68.28
2019-05-06T05:56:26.667Z,67.19
2019-05-06T05:58:55.766Z,66.66
2019-05-06T06:01:25.963Z,66.16
2019-05-06T06:03:55.234Z,65.40
2019-05-06T06:06:24.310Z,66.14
2019-05-06T06:08:53.323Z,63.68
2019-05-06T06:11:29.745Z,62.64
2019-05-06T06:14:02.995Z,62.81
2019-05-06T06:16:58.158Z,62.82
2019-05-06T06:19:36.725Z,62.42
2019-05-06T06:22:08.548Z,61.66
2019-05-06T06:24:37.729Z,62.39
2019-05-06T06:27:06.742Z,62.52
2019-05-06T06:29:35.715Z,62.03
2019-05-06T06:32:32.710Z,58.43
2019-05-06T06:35:36.211Z,58.73
2019-05-06T06:38:12.313Z,58.73
2019-05-06T06:40:42.541Z,58.74
2019-05-06T06:43:16.577Z,57.24
2019-05-06T06:45:45.544Z,55.84
2019-05-06T06:48:14.540Z,54.46
2019-05-06T06:50:43.612Z,52.74
2019-05-06T06:53:12.609Z,51.05
2019-05-06T06:55:42.779Z,47.32
2019-05-06T06:58:24.228Z,45.14
2019-05-06T07:01:12.348Z,43.98
2019-05-06T07:03:46.156Z,43.38
2019-05-06T07:06:33.695Z,42.23
2019-05-06T07:09:03.742Z,42.66
2019-05-06T07:11:33.125Z,43.09
2019-05-06T07:14:02.701Z,42.57
2019-05-06T07:16:32.786Z,42.73
2019-05-06T07:19:03.082Z,43.02
2019-05-06T07:21:46.549Z,41.18
2019-05-06T07:24:15.654Z,39.11
2019-05-06T07:26:49.073Z,40.02
2019-05-06T07:29:23.429Z,40.15
2019-05-06T07:31:48.936Z,39.99
2019-05-06T07:34:17.996Z,39.12
2019-05-06T07:36:46.926Z,42.36
2019-05-06T07:39:16.243Z,39.75
2019-05-06T07:41:53.510Z,37.58
2019-05-06T07:44:42.351Z,37.05
2019-05-06T07:47:39.573Z,36.92
2019-05-06T07:50:09.792Z,36.54
2019-05-06T07:52:38.864Z,36.54
2019-05-06T07:55:07.990Z,36.44
2019-05-06T07:57:36.992Z,36.53
2019-05-06T08:00:07.385Z,35.82
2019-05-06T08:02:36.213Z,33.82
2019-05-06T08:05:07.647Z,35.41
2019-05-06T08:07:36.692Z,37.53
2019-05-06T08:10:06.472Z,38.77
2019-05-06T08:12:35.513Z,36.86
2019-05-06T08:15:06.060Z,35.79
2019-05-06T08:17:39.233Z,40.03
2019-05-06T08:20:09.679Z,40.12
2019-05-06T08:22:56.752Z,43.36
2019-05-06T08:25:25.904Z,44.04
2019-05-06T08:27:54.883Z,44.96
2019-05-06T08:30:23.922Z,45.68
2019-05-06T08:32:53.043Z,45.89
2019-05-06T08:35:22.763Z,45.48
2019-05-06T08:37:53.097Z,47.00
2019-05-06T08:40:23.683Z,47.74
2019-05-06T08:42:53.296Z,46.93
2019-05-06T08:45:22.286Z,46.27
2019-05-06T08:47:52.377Z,44.40
2019-05-06T08:50:49.580Z,43.87
2019-05-06T08:53:32.941Z,41.55
2019-05-06T08:56:02.543Z,39.89
2019-05-06T08:58:47.813Z,41.57
2019-05-06T09:01:29.609Z,39.55
2019-05-06T09:04:08.831Z,40.52
2019-05-06T09:06:31.578Z,40.52
2019-05-06T09:09:02.186Z,40.78
2019-05-06T09:11:32.213Z,41.11
2019-05-06T09:14:03.387Z,41.54
2019-05-06T09:16:33.114Z,42.17
2019-05-06T09:19:04.432Z,42.61
2019-05-06T09:21:33.551Z,40.54
2019-05-06T09:24:02.938Z,39.96
2019-05-06T09:26:45.876Z,38.25
2019-05-06T09:29:19.514Z,37.60
2019-05-06T09:31:52.225Z,38.41
2019-05-06T09:34:33.753Z,39.76
2019-05-06T09:37:15.516Z,39.76
2019-05-06T09:39:50.096Z,42.34
2019-05-06T09:42:19.090Z,40.21
2019-05-06T09:44:50.635Z,40.31
2019-05-06T09:47:29.433Z,41.20
2019-05-06T09:49:58.459Z,40.78
2019-05-06T09:52:27.353Z,42.10
2019-05-06T09:55:12.974Z,41.63
2019-05-06T09:58:16.365Z,41.18
2019-05-06T10:00:48.368Z,40.71
2019-05-06T10:03:17.438Z,38.93
2019-05-06T10:05:46.454Z,39.09
2019-05-06T10:08:15.461Z,38.18
2019-05-06T10:10:56.114Z,38.59
2019-05-06T10:13:15.639Z,37.74
2019-05-06T10:15:46.875Z,36.29
2019-05-06T10:18:16.022Z,35.78
2019-05-06T10:20:46.931Z,37.12
2019-05-06T10:23:16.027Z,37.55
2019-05-06T10:25:45.274Z,38.45
2019-05-06T10:28:46.199Z,37.89
2019-05-06T10:31:16.941Z,37.88
2019-05-06T10:34:03.642Z,36.71
2019-05-06T10:36:42.739Z,35.68
2019-05-06T10:39:13.920Z,36.01
2019-05-06T10:41:46.366Z,36.40
2019-05-06T10:44:34.088Z,33.59
2019-05-06T10:47:03.099Z,33.96
2019-05-06T10:49:33.714Z,31.65
2019-05-06T10:52:10.197Z,28.69
2019-05-06T10:54:39.048Z,28.89
2019-05-06T10:57:32.931Z,29.35
2019-05-06T11:00:01.785Z,30.75
2019-05-06T11:02:48.988Z,31.49
2019-05-06T11:05:18.278Z,32.01
2019-05-06T11:07:47.148Z,31.71
2019-05-06T11:10:23.939Z,30.21
2019-05-06T11:12:47.076Z,30.30
2019-05-06T11:15:16.219Z,30.40
2019-05-06T11:17:45.026Z,31.37
2019-05-06T11:20:14.235Z,29.94
2019-05-06T11:22:43.689Z,29.83
2019-05-06T11:25:13.044Z,30.46
2019-05-06T11:27:45.098Z,31.18
2019-05-06T11:30:29.006Z,31.59
2019-05-06T11:33:04.815Z,31.42
2019-05-06T11:36:08.310Z,31.22
2019-05-06T11:38:37.178Z,31.69
2019-05-06T11:41:06.273Z,31.19
2019-05-06T11:43:35.287Z,30.74
2019-05-06T11:46:04.301Z,30.06
2019-05-06T11:48:33.088Z,29.32
2019-05-06T11:51:03.773Z,29.58
2019-05-06T11:53:32.762Z,29.28
2019-05-06T11:56:02.222Z,29.71
2019-05-06T11:58:48.025Z,28.60
2019-05-06T12:01:20.977Z,28.44
2019-05-06T12:03:52.040Z,28.21
2019-05-06T12:06:22.609Z,28.87
2019-05-06T12:08:52.461Z,29.00
2019-05-06T12:11:23.751Z,29.41
2019-05-06T12:13:53.215Z,29.03
2019-05-06T12:16:26.039Z,29.55
2019-05-06T12:18:53.152Z,28.61
2019-05-06T12:21:23.200Z,28.54
2019-05-06T12:23:54.051Z,27.90
2019-05-06T12:26:22.981Z,28.01
2019-05-06T12:28:53.178Z,28.01
2019-05-06T12:31:23.347Z,27.59
2019-05-06T12:33:53.313Z,27.27
2019-05-06T12:36:23.686Z,28.01
2019-05-06T12:39:15.715Z,28.87
2019-05-06T12:41:53.263Z,29.94
2019-05-06T12:44:23.054Z,29.94
2019-05-06T12:47:03.395Z,30.32
2019-05-06T12:49:32.760Z,30.57
2019-05-06T12:52:01.734Z,30.40
2019-05-06T12:54:33.260Z,30.46
2019-05-06T12:57:03.260Z,30.51
2019-05-06T12:59:32.574Z,30.79
2019-05-06T13:02:02.746Z,30.49
2019-05-06T13:04:49.629Z,30.59
2019-05-06T13:07:03.143Z,30.03
2019-05-06T13:09:33.194Z,29.72
2019-05-06T13:12:03.792Z,30.30
2019-05-06T13:14:33.281Z,30.46
2019-05-06T13:17:02.855Z,30.44
2019-05-06T13:19:32.344Z,30.75
2019-05-06T13:22:03.743Z,30.92
2019-05-06T13:24:32.569Z,30.11
2019-05-06T13:27:02.575Z,30.83
2019-05-06T13:29:35.661Z,31.51
2019-05-06T13:32:04.138Z,31.45
2019-05-06T13:34:33.503Z,30.85
2019-05-06T13:37:02.641Z,30.49
2019-05-06T13:39:32.816Z,30.92
2019-05-06T13:42:02.012Z,31.17
2019-05-06T13:44:32.031Z,31.85
2019-05-06T13:47:02.962Z,31.69
2019-05-06T13:49:47.457Z,32.64
2019-05-06T13:52:19.172Z,32.13
2019-05-06T13:54:48.071Z,32.43
2019-05-06T13:57:17.020Z,33.06
2019-05-06T13:59:45.917Z,32.78
2019-05-06T14:02:34.277Z,32.48
2019-05-06T14:05:03.257Z,32.28
2019-05-06T14:07:34.458Z,31.83
2019-05-06T14:10:02.976Z,32.12
2019-05-06T14:12:33.138Z,32.81
2019-05-06T14:15:04.330Z,32.13
2019-05-06T14:17:33.002Z,31.74
2019-05-06T14:20:02.626Z,31.69
2019-05-06T14:22:32.614Z,32.08
2019-05-06T14:25:36.224Z,32.41
2019-05-06T14:28:12.427Z,32.02
2019-05-06T14:31:15.510Z,32.93
2019-05-06T14:33:44.503Z,32.79
2019-05-06T14:36:13.380Z,33.52
2019-05-06T14:38:43.072Z,33.41
2019-05-06T14:41:18.425Z,33.39
2019-05-06T14:43:47.419Z,32.99
2019-05-06T14:46:16.511Z,32.25
2019-05-06T14:48:45.583Z,31.93
2019-05-06T14:51:14.926Z,30.95
2019-05-06T14:53:44.034Z,30.81
2019-05-06T14:56:27.789Z,30.52
2019-05-06T14:59:06.702Z,31.68
2019-05-06T15:01:37.716Z,31.34
2019-05-06T15:04:06.755Z,31.44
2019-05-06T15:06:35.902Z,31.78
2019-05-06T15:09:07.517Z,32.76
2019-05-06T15:11:36.499Z,32.71
2019-05-06T15:14:05.891Z,32.26
2019-05-06T15:16:34.678Z,31.48
2019-05-06T15:19:04.992Z,31.76
2019-05-06T15:21:38.557Z,33.01
2019-05-06T15:24:05.313Z,33.03
2019-05-06T15:26:34.268Z,32.79
2019-05-06T15:29:03.578Z,31.85
2019-05-06T15:31:54.174Z,31.75
2019-05-06T15:34:29.956Z,32.40
2019-05-06T15:37:13.039Z,33.43
2019-05-06T15:39:43.781Z,33.98
2019-05-06T15:42:13.069Z,35.21
2019-05-06T15:44:42.649Z,35.01
2019-05-06T15:47:13.211Z,35.20
2019-05-06T15:49:42.328Z,34.81
2019-05-06T15:52:12.512Z,36.06
2019-05-06T15:54:43.029Z,36.84
2019-05-06T15:57:12.154Z,36.96
2019-05-06T15:59:44.408Z,36.68
2019-05-06T16:02:12.173Z,36.25
2019-05-06T16:04:42.963Z,36.67
2019-05-06T16:07:12.655Z,37.12
2019-05-06T16:09:42.834Z,36.87
2019-05-06T16:12:12.766Z,37.11
2019-05-06T16:14:42.503Z,38.23
2019-05-06T16:17:12.375Z,38.02
2019-05-06T16:19:42.724Z,38.18
2019-05-06T16:22:11.868Z,38.23
2019-05-06T16:24:45.768Z,38.53
2019-05-06T16:27:14.547Z,38.61
2019-05-06T16:29:43.541Z,38.54
2019-05-06T16:32:12.448Z,38.95
2019-05-06T16:34:43.061Z,39.43
2019-05-06T16:37:12.681Z,39.87
2019-05-06T16:39:41.715Z,40.06
2019-05-06T16:42:12.984Z,40.20
2019-05-06T16:44:45.168Z,39.97
2019-05-06T16:47:15.703Z,40.38
2019-05-06T16:49:44.647Z,40.44
2019-05-06T16:52:13.562Z,40.71
2019-05-06T16:54:42.636Z,41.20
2019-05-06T16:57:20.405Z,41.85
2019-05-06T16:59:49.300Z,42.18
2019-05-06T17:02:26.686Z,42.79
2019-05-06T17:05:15.064Z,42.89
2019-05-06T17:07:45.129Z,42.86
2019-05-06T17:10:14.738Z,42.50
2019-05-06T17:12:43.682Z,42.79
2019-05-06T17:15:12.654Z,42.99
2019-05-06T17:17:46.677Z,43.42
2019-05-06T17:20:12.615Z,43.61
2019-05-06T17:22:42.351Z,43.85
2019-05-06T17:25:11.680Z,44.06
2019-05-06T17:27:43.403Z,43.31
2019-05-06T17:30:33.587Z,43.19
2019-05-06T17:33:22.430Z,43.20
2019-05-06T17:35:52.159Z,42.60
2019-05-06T17:38:25.508Z,42.31
2019-05-06T17:40:54.710Z,42.84
2019-05-06T17:43:23.652Z,43.23
2019-05-06T17:46:02.586Z,43.68
2019-05-06T17:48:42.239Z,43.96
2019-05-06T17:51:23.509Z,43.25
2019-05-06T17:53:53.667Z,43.38
2019-05-06T17:56:22.613Z,43.70
2019-05-06T17:58:53.235Z,43.79
2019-05-06T18:01:27.422Z,43.83
2019-05-06T18:03:56.394Z,43.49
2019-05-06T18:06:25.393Z,43.58
2019-05-06T18:08:54.299Z,43.99
2019-05-06T18:11:23.246Z,43.90
2019-05-06T18:13:52.263Z,43.17
2019-05-06T18:16:22.259Z,43.00
2019-05-06T18:18:52.285Z,43.32
2019-05-06T18:21:22.986Z,43.66
2019-05-06T18:23:52.379Z,43.70
2019-05-06T18:26:22.949Z,44.39
2019-05-06T18:28:52.698Z,44.96
2019-05-06T18:31:22.198Z,45.45
2019-05-06T18:33:52.784Z,45.85
2019-05-06T18:36:22.678Z,46.40
2019-05-06T18:38:52.584Z,46.83
2019-05-06T18:41:23.563Z,47.25
2019-05-06T18:43:53.647Z,47.60
2019-05-06T18:46:22.979Z,47.85
2019-05-06T18:48:52.553Z,48.22
2019-05-06T18:51:22.407Z,48.58
2019-05-06T18:53:52.476Z,48.96
2019-05-06T18:56:22.446Z,49.31
2019-05-06T18:58:53.067Z,49.82
2019-05-06T19:01:23.190Z,49.97
2019-05-06T19:04:12.863Z,50.14
2019-05-06T19:06:42.447Z,50.50
2019-05-06T19:09:32.580Z,50.57
2019-05-06T19:12:03.539Z,50.70
2019-05-06T19:14:32.986Z,50.90
2019-05-06T19:17:02.800Z,51.20
2019-05-06T19:19:34.130Z,51.81
2019-05-06T19:22:03.207Z,52.04
2019-05-06T19:24:33.711Z,52.25
2019-05-06T19:27:03.135Z,52.80
2019-05-06T19:29:32.791Z,52.80
2019-05-06T19:32:02.971Z,52.89
2019-05-06T19:34:34.932Z,53.50
2019-05-06T19:37:03.144Z,53.27
2019-05-06T19:39:33.005Z,53.34
2019-05-06T19:42:02.881Z,53.50
2019-05-06T19:44:32.888Z,53.72
2019-05-06T19:47:02.520Z,54.06
2019-05-06T19:49:32.772Z,53.65
2019-05-06T19:52:03.126Z,53.57
2019-05-06T19:54:33.155Z,54.08
2019-05-06T19:57:02.646Z,54.19
2019-05-06T19:59:33.133Z,54.20
2019-05-06T20:02:02.416Z,54.55
2019-05-06T20:04:33.217Z,54.95
2019-05-06T20:07:26.909Z,55.25
2019-05-06T20:10:12.501Z,55.41
2019-05-06T20:12:58.306Z,55.53
2019-05-06T20:15:42.688Z,55.59
2019-05-06T20:18:11.417Z,55.88
2019-05-06T20:20:42.396Z,56.24
2019-05-06T20:23:12.589Z,56.44
2019-05-06T20:25:42.590Z,56.66
2019-05-06T20:28:13.117Z,56.84
2019-05-06T20:30:42.453Z,57.73
2019-05-06T20:33:12.486Z,58.11
2019-05-06T20:35:43.250Z,56.91
2019-05-06T20:38:12.492Z,57.66
2019-05-06T20:40:43.093Z,56.59
2019-05-06T20:43:20.064Z,57.13
2019-05-06T20:45:42.960Z,56.77
2019-05-06T20:48:12.908Z,56.77
2019-05-06T20:50:42.875Z,56.80
2019-05-06T20:53:12.263Z,56.84
2019-05-06T20:55:43.387Z,56.95
2019-05-06T20:58:12.320Z,56.92
2019-05-06T21:00:42.914Z,56.85
2019-05-06T21:03:12.450Z,56.93
2019-05-06T21:05:43.431Z,57.03
2019-05-06T21:08:12.978Z,57.33
2019-05-06T21:10:42.608Z,57.49
2019-05-06T21:13:13.270Z,57.79
2019-05-06T21:15:43.549Z,57.83
2019-05-06T21:18:12.448Z,58.12
2019-05-06T21:20:43.528Z,57.68
2019-05-06T21:23:12.154Z,57.69
2019-05-06T21:25:43.136Z,57.81
2019-05-06T21:28:12.259Z,57.85
2019-05-06T21:30:42.868Z,58.14
2019-05-06T21:33:12.507Z,58.37
2019-05-06T21:35:42.396Z,58.45
2019-05-06T21:38:12.105Z,58.64
2019-05-06T21:40:43.407Z,58.56
2019-05-06T21:43:13.077Z,58.84
2019-05-06T21:45:42.503Z,58.90
2019-05-06T21:48:13.600Z,58.48
2019-05-06T21:50:42.781Z,58.54
2019-05-06T21:53:14.339Z,58.46
2019-05-06T21:55:42.864Z,57.57
2019-05-06T21:58:14.018Z,57.07
2019-05-06T22:00:49.359Z,57.36
2019-05-06T22:03:22.957Z,57.37
2019-05-06T22:05:54.972Z,57.45
2019-05-06T22:08:24.064Z,58.16
2019-05-06T22:10:53.249Z,58.14
2019-05-06T22:13:24.878Z,57.97
2019-05-06T22:15:54.070Z,57.86
2019-05-06T22:18:23.026Z,58.01
2019-05-06T22:21:26.254Z,58.12
2019-05-06T22:24:06.256Z,58.25
2019-05-06T22:26:36.030Z,58.81
2019-05-06T22:29:07.345Z,58.83
2019-05-06T22:31:38.832Z,59.10
2019-05-06T22:34:07.740Z,59.36
2019-05-06T22:36:36.836Z,59.58
2019-05-06T22:39:06.789Z,59.27
2019-05-06T22:41:37.259Z,59.16
2019-05-06T22:44:13.839Z,59.92
2019-05-06T22:46:36.711Z,60.38
2019-05-06T22:49:05.476Z,60.78
2019-05-06T22:51:34.471Z,60.88
2019-05-06T22:54:03.615Z,61.00
2019-05-06T22:56:32.779Z,61.00
2019-05-06T22:59:04.482Z,60.71
2019-05-06T23:01:47.980Z,61.44
2019-05-06T23:04:17.562Z,60.31
2019-05-06T23:06:46.523Z,60.05
2019-05-06T23:09:15.413Z,60.22
2019-05-06T23:11:44.455Z,60.66
2019-05-06T23:14:27.652Z,60.40
2019-05-06T23:16:44.110Z,60.23
2019-05-06T23:19:12.972Z,60.40
2019-05-06T23:21:43.048Z,60.68
2019-05-06T23:24:13.111Z,60.99
2019-05-06T23:26:42.187Z,61.23
2019-05-06T23:29:12.968Z,61.76
2019-05-06T23:31:42.453Z,62.05
2019-05-06T23:34:12.537Z,62.26
2019-05-06T23:37:28.180Z,62.79
2019-05-06T23:40:38.883Z,63.31
2019-05-06T23:43:43.954Z,63.65
2019-05-06T23:46:49.376Z,63.52
2019-05-06T23:49:54.686Z,63.79
2019-05-06T23:52:59.458Z,63.62
2019-05-06T23:56:04.532Z,64.15
2019-05-06T23:58:33.578Z,63.95
